Latest Weather Observations for Lord Howe Island

IDN60801

Issued at 4:42 pm EDT Sunday 18 November 2018 (issued every 10 minutes, with the page automatically refreshed every 10 minutes)

About weather observations | Map of weather stations | Latest weather observations for NSW | Other Formats
Station Details ID: 200839 Name: LORD HOWE ISLAND AERO Lat: -31.54 Lon: 159.08 Height: 5.0 m
Data from the previous 72 hours. | See also: Recent months at Lord Howe Island
Date/Time
EDT
Temp
°C
App
Temp
°C
Dew
Point
°C
Rel
Hum
%
Delta-T
°C
Wind Press
QNH
hPa
Press
MSL
hPa
Rain since
9am
mm
Dir  Spd
km/h
Gust
km/h
Spd
kts
Gust
kts
18/04:30pm 18.9 15.4 10.2 57 4.6 WSW 19 37 10 20 1017.7 - 0.0
18/04:00pm 19.0 16.7 10.6 58 4.5 S 13 28 7 15 1017.6 - 0.0
18/03:30pm 19.4 17.4 11.4 60 4.4 S 13 35 7 19 1017.8 - 0.0
18/03:00pm 19.8 17.1 11.6 59 4.5 SSW 17 32 9 17 1017.6 1017.6 0.0
18/02:30pm 19.4 16.5 10.9 58 4.6 SSW 17 28 9 15 1017.9 - 0.0
18/02:00pm 19.1 16.6 11.2 60 4.3 SW 15 35 8 19 1018.1 - 0.0
18/01:30pm 19.8 17.2 10.8 56 4.9 SSW 15 32 8 17 1018.2 - 0.0
18/01:00pm 19.0 16.6 11.3 61 4.2 SSW 15 33 8 18 1018.2 - 0.0
18/12:30pm 19.1 14.8 10.6 58 4.6 SW 24 44 13 24 1018.5 - 0.0
18/12:00pm 18.9 15.3 10.5 58 4.5 WSW 20 39 11 21 1018.3 1018.3 0.0
18/11:30am 19.5 16.2 11.5 60 4.4 WSW 20 30 11 16 1018.4 - 0.0
18/11:00am 19.0 17.3 11.1 60 4.3 SW 11 26 6 14 1018.4 - 0.0
18/10:30am 18.8 16.1 11.6 63 4.0 SSW 17 26 9 14 1018.4 - 0.0
18/10:00am 18.7 15.5 11.3 62 4.0 W 19 41 10 22 1018.2 - 0.0
18/09:30am 18.7 15.8 11.0 61 4.2 SW 17 28 9 15 1018.1 - 0.0
18/09:00am 18.8 16.7 11.1 61 4.2 SSW 13 26 7 14 1017.8 1017.8 0.0
18/08:30am 18.8 17.2 11.6 63 4.0 WSW 11 22 6 12 1017.5 - 0.0
18/08:00am 19.1 16.3 11.2 60 4.3 SSW 17 33 9 18 1017.5 - 0.0
18/07:30am 19.6 16.0 10.6 56 4.9 SSW 20 33 11 18 1017.4 - 0.0
18/07:00am 18.7 16.2 11.0 61 4.2 SW 15 22 8 12 1017.1 - 0.0
18/06:30am 18.4 16.4 11.5 64 3.8 SSW 13 39 7 21 1017.0 - 0.0
18/06:00am 18.6 15.7 10.9 61 4.2 S 17 33 9 18 1016.7 1016.7 0.0
18/05:30am 18.4 15.6 11.2 63 3.9 S 17 43 9 23 1016.5 - 0.0
18/05:00am 18.5 15.7 11.3 63 3.9 SSW 17 32 9 17 1016.2 - 0.0
18/04:30am 18.5 16.0 11.1 62 4.0 S 15 32 8 17 1016.0 - 0.0
18/04:00am 18.6 15.8 11.2 62 4.0 SSW 17 35 9 19 1016.1 - 0.0
18/03:30am 18.6 15.4 11.4 63 3.9 SW 19 33 10 18 1016.1 - 0.0
18/03:00am 18.7 15.9 11.3 62 4.0 SSW 17 32 9 17 1016.3 1016.3 0.0
18/02:30am 18.5 16.2 10.3 59 4.4 SSW 13 19 7 10 1016.5 - 0.0
18/02:00am 18.7 15.5 11.3 62 4.0 SW 19 44 10 24 1016.6 - 0.0
18/01:30am 18.8 16.4 11.4 62 4.0 SW 15 32 8 17 1016.7 - 0.0
18/01:00am 18.9 15.9 11.9 64 3.9 SW 19 35 10 19 1016.8 - 0.0
18/12:30am 19.1 16.1 12.1 64 3.9 WSW 19 32 10 17 1016.8 - 0.0
18/12:00am 19.2 16.7 12.2 64 3.9 SSW 17 32 9 17 1016.9 1016.9 0.0
 
Date/Time
EDT
Temp
°C
App
Temp
°C
Dew
Point
°C
Rel
Hum
%
Delta-T
°C
Wind Press
QNH
hPa
Press
MSL
hPa
Rain since
9am
mm
Dir  Spd
km/h
Gust
km/h
Spd
kts
Gust
kts
17/11:30pm 19.1 16.5 12.1 64 3.9 SW 17 26 9 14 1017.2 - 0.0
17/11:00pm 19.3 16.9 12.6 65 3.8 SSW 17 26 9 14 1017.1 - 0.0
17/10:30pm 19.2 17.9 12.5 65 3.7 SSW 11 24 6 13 1017.2 - 0.0
17/10:00pm 19.2 18.3 12.5 65 3.7 NNW 9 19 5 10 1017.1 - 0.0
17/09:30pm 19.3 17.3 12.8 66 3.7 SSW 15 32 8 17 1017.1 - 0.0
17/09:00pm 19.3 18.2 13.0 67 3.6 S 11 22 6 12 1016.8 1016.8 0.0
17/08:30pm 19.3 17.6 12.6 65 3.8 S 13 20 7 11 1016.7 - 0.0
17/08:00pm 19.7 17.5 13.4 67 3.6 SSW 17 32 9 17 1016.6 - 0.0
17/07:30pm 19.5 18.3 14.1 71 3.1 S 13 24 7 13 1016.3 - 0.0
17/07:00pm 19.7 18.9 13.9 69 3.3 S 11 24 6 13 1015.9 - 0.0
17/06:30pm 20.5 20.3 14.6 69 3.4 S 9 20 5 11 1015.6 - 0.0
17/06:00pm 21.1 20.8 14.3 65 4.0 S 9 24 5 13 1015.1 1015.1 0.0
17/05:30pm 21.6 20.3 14.7 65 4.1 S 15 30 8 16 1014.8 - 0.0
17/05:00pm 22.2 21.2 14.6 62 4.5 S 13 24 7 13 1014.8 - 0.0
17/04:30pm 22.4 22.4 15.3 64 4.2 E 9 17 5 9 1014.8 - 0.0
17/04:00pm 22.6 22.2 16.2 67 3.9 SW 13 24 7 13 1014.7 - 0.0
17/03:30pm 22.8 22.2 15.6 64 4.3 S 13 19 7 10 1014.8 - 0.0
17/03:00pm 23.4 24.0 16.9 67 4.0 SSW 9 19 5 10 1014.8 1014.8 0.0
17/02:30pm 22.4 22.3 16.9 71 3.4 SSW 13 26 7 14 1014.9 - 0.0
17/02:00pm 22.8 22.3 17.9 74 3.1 SSW 17 28 9 15 1015.1 - 0.0
17/01:30pm 23.2 23.3 18.3 74 3.1 SW 15 26 8 14 1015.3 - 0.0
17/01:00pm 22.8 22.3 17.9 74 3.1 SW 17 24 9 13 1015.5 - 0.0
17/12:30pm 22.7 22.3 18.0 75 2.9 SW 17 26 9 14 1015.6 - 0.0
17/12:00pm 22.4 21.4 17.5 74 3.0 SW 19 24 10 13 1015.8 1015.8 0.0
17/11:30am 22.3 21.8 17.7 75 2.9 WSW 17 22 9 12 1016.0 - 0.0
17/11:00am 22.3 21.9 18.1 77 2.6 WSW 17 20 9 11 1016.0 - 0.0
17/10:30am 22.3 22.2 17.9 76 2.7 WSW 15 19 8 10 1016.0 - 0.0
17/10:26am 22.3 22.3 18.1 77 2.6 SW 15 19 8 10 1016.0 - 0.0
17/10:00am 22.2 23.1 18.4 79 2.4 SW 11 19 6 10 1015.8 - 0.0
17/09:47am 21.7 22.4 17.9 79 2.4 WSW 11 17 6 9 1015.8 - 0.0
17/09:30am 22.1 23.1 18.7 81 2.1 WSW 11 15 6 8 1015.7 - 0.0
17/09:00am 21.5 22.8 18.5 83 1.9 SW 9 13 5 7 1015.6 1015.6 4.4
17/08:30am 21.6 23.2 19.2 86 1.5 SSW 9 13 5 7 1015.7 - 4.2
17/08:00am 20.8 22.3 18.9 89 1.2 SW 9 13 5 7 1015.7 - 4.2
17/07:30am 20.5 22.5 19.2 92 0.8 SW 7 11 4 6 1015.6 - 4.2
17/07:00am 19.6 22.6 18.4 93 0.7 CALM 0 0 0 0 1015.5 - 4.2
17/06:30am 19.1 22.0 18.1 94 0.6 CALM 0 0 0 0 1015.4 - 4.2
17/06:14am 18.1 20.5 17.1 94 0.6 CALM 0 0 0 0 1015.4 - 4.2
17/06:04am 17.1 19.1 16.1 94 0.6 CALM 0 0 0 0 1015.4 - 4.2
17/06:00am 16.9 18.9 15.9 94 0.6 CALM 0 0 0 0 1015.4 1015.4 4.2
17/05:43am 15.6 17.1 14.6 94 0.6 CALM 0 0 0 0 1015.2 - 4.2
17/05:30am 15.3 16.7 14.3 94 0.6 CALM 0 0 0 0 1015.2 - 4.2
17/05:01am 15.0 16.2 13.9 93 0.6 CALM 0 0 0 0 1014.9 - 4.2
17/05:00am 15.1 16.4 14.0 93 0.6 CALM 0 0 0 0 1014.9 - 4.2
17/04:30am 15.6 17.0 14.5 93 0.6 CALM 0 0 0 0 1014.8 - 4.2
17/04:00am 15.7 17.2 14.6 93 0.6 CALM 0 0 0 0 1014.7 - 4.2
17/03:35am 16.1 17.7 15.0 93 0.6 CALM 0 0 0 0 1014.7 - 4.2
17/03:30am 15.8 17.2 14.5 92 0.7 CALM 0 0 0 0 1014.8 - 4.2
17/03:16am 16.1 17.7 14.8 92 0.7 CALM 0 0 0 0 1014.9 - 4.2
17/03:10am 16.2 17.8 14.9 92 0.7 CALM 0 0 0 0 1014.9 - 4.2
17/03:00am 16.0 17.5 14.7 92 0.7 CALM 0 0 0 0 1015.0 1015.0 4.2
17/02:30am 16.4 18.1 15.1 92 0.8 CALM 0 0 0 0 1015.2 - 4.2
17/02:00am 16.6 18.3 15.1 91 0.9 CALM 0 0 0 0 1015.4 - 4.2
17/01:57am 16.6 18.3 15.1 91 0.9 CALM 0 0 0 0 1015.4 - 4.2
17/01:56am 16.6 18.3 15.1 91 0.9 CALM 0 0 0 0 1015.4 - 4.2
17/01:30am 17.0 18.8 15.5 91 0.9 CALM 0 0 0 0 1015.6 - 4.2
17/01:26am 17.0 18.8 15.5 91 0.9 CALM 0 0 0 0 1015.6 - 4.2
17/01:00am 17.8 19.8 16.1 90 1.0 CALM 0 0 0 0 1015.9 - 4.2
17/12:30am 18.6 19.8 16.9 90 1.0 E 6 7 3 4 1016.2 - 4.2
17/12:00am 18.8 19.9 17.1 90 1.0 E 7 9 4 5 1016.4 1016.4 4.2
 
Date/Time
EDT
Temp
°C
App
Temp
°C
Dew
Point
°C
Rel
Hum
%
Delta-T
°C
Wind Press
QNH
hPa
Press
MSL
hPa
Rain since
9am
mm
Dir  Spd
km/h
Gust
km/h
Spd
kts
Gust
kts
16/11:30pm 18.7 19.7 16.8 89 1.1 E 7 9 4 5 1016.7 - 4.2
16/11:00pm 18.6 19.8 16.8 89 1.1 ESE 6 7 3 4 1016.9 - 4.2
16/10:33pm 19.1 19.9 17.2 89 1.2 ESE 9 11 5 6 1017.0 - 4.2
16/10:30pm 19.3 20.1 17.4 89 1.2 ESE 9 13 5 7 1017.0 - 4.2
16/10:00pm 19.3 20.1 17.4 89 1.2 ESE 9 11 5 6 1017.1 - 4.2
16/09:52pm 19.2 20.0 17.3 89 1.2 ESE 9 11 5 6 1017.1 - 4.2
16/09:30pm 19.1 19.9 17.2 89 1.2 E 9 11 5 6 1017.0 - 4.2
16/09:00pm 19.2 19.6 17.3 89 1.2 E 11 13 6 7 1016.8 1016.8 4.2
16/08:43pm 19.0 19.7 17.0 88 1.2 E 9 11 5 6 1016.8 - 4.2
16/08:30pm 19.0 19.7 17.0 88 1.2 E 9 11 5 6 1016.8 - 4.2
16/08:00pm 19.2 20.3 17.0 87 1.3 E 7 9 4 5 1016.5 - 4.2
16/07:54pm 19.2 20.3 17.0 87 1.3 E 7 9 4 5 1016.4 - 4.2
16/07:30pm 19.3 19.9 16.9 86 1.5 E 9 9 5 5 1016.3 - 4.2
16/07:00pm 19.5 20.4 16.7 84 1.7 E 7 11 4 6 1016.2 - 4.2
16/06:30pm 20.4 22.3 17.6 84 1.7 E 4 9 2 5 1016.1 - 4.2
16/06:00pm 20.3 21.1 17.3 83 1.8 E 9 11 5 6 1016.0 1016.0 4.2
16/05:30pm 20.3 20.8 17.5 84 1.7 ENE 11 13 6 7 1015.7 - 4.2
16/05:00pm 20.3 21.9 17.9 86 1.5 ENE 6 9 3 5 1015.8 - 4.2
16/04:30pm 19.4 20.7 17.0 86 1.5 WSW 6 7 3 4 1016.0 - 4.2
16/04:04pm 19.0 20.9 16.8 87 1.3 W 2 7 1 4 1016.1 - 4.2
16/04:00pm 19.2 21.2 17.0 87 1.3 W 2 7 1 4 1016.2 - 4.2
16/03:30pm 18.8 18.3 16.0 84 1.7 W 13 19 7 10 1016.5 - 2.8
16/03:23pm 19.0 17.2 15.9 82 1.8 WSW 20 32 11 17 1016.5 - 1.0
16/03:00pm 21.5 21.6 17.5 78 2.5 SW 13 19 7 10 1016.4 1016.4 0.2
16/02:30pm 23.1 23.3 17.6 71 3.4 WSW 13 17 7 9 1016.5 - 0.2
16/02:00pm 23.4 23.4 18.1 72 3.3 WSW 15 19 8 10 1016.7 - 0.2
16/01:30pm 22.9 23.2 17.8 73 3.2 WSW 13 17 7 9 1016.9 - 0.2
16/01:00pm 23.1 23.5 18.2 74 3.1 WSW 13 17 7 9 1017.1 - 0.2
16/12:30pm 23.0 22.9 17.9 73 3.2 WSW 15 17 8 9 1017.6 - 0.2
16/12:00pm 22.7 22.7 18.0 75 2.9 W 15 19 8 10 1017.9 1017.9 0.2
16/11:30am 22.4 22.0 17.1 72 3.3 W 15 19 8 10 1018.1 - 0.2
16/11:00am 23.6 24.7 18.0 71 3.5 WNW 9 15 5 8 1018.1 - 0.2
16/10:30am 22.7 22.8 17.4 72 3.3 N 13 20 7 11 1018.2 - 0.2
16/10:00am 22.8 22.6 17.7 73 3.2 NE 15 19 8 10 1018.2 - 0.2
16/09:30am 22.5 22.4 17.8 75 2.9 NNE 15 19 8 10 1018.0 - 0.2
16/09:00am 22.4 22.1 17.3 73 3.1 NNE 15 19 8 10 1017.9 1017.9 0.2
16/08:30am 22.3 22.8 18.3 78 2.5 NNE 13 19 7 10 1018.1 - 0.2
16/08:15am 21.5 22.9 17.3 77 2.6 NW 6 13 3 7 1018.3 - 0.2
16/08:00am 22.3 23.4 17.9 76 2.7 N 9 22 5 12 1018.3 - 0.2
16/07:56am 22.5 23.4 18.3 77 2.6 N 11 22 6 12 1018.3 - 0.2
16/07:30am 21.6 22.8 18.2 81 2.1 NNE 9 13 5 7 1018.4 - 0.2
16/07:00am 21.0 22.5 18.8 87 1.4 NNE 9 11 5 6 1018.3 - 0.2
16/06:30am 20.5 22.3 18.8 90 1.1 ENE 7 9 4 5 1018.1 - 0.2
16/06:01am 19.3 20.6 17.6 90 1.0 E 7 9 4 5 1017.9 - 0.2
16/06:00am 19.4 20.8 17.7 90 1.0 E 7 9 4 5 1017.9 1017.9 0.2
16/05:53am 19.3 20.3 17.8 91 0.9 ENE 9 11 5 6 1017.9 - 0.2
16/05:37am 17.9 18.9 16.4 91 0.9 NE 6 11 3 6 1017.9 - 0.2
16/05:30am 16.9 18.6 15.2 90 1.0 CALM 0 6 0 3 1017.8 - 0.2
16/05:29am 16.9 18.6 15.2 90 1.0 CALM 0 0 0 0 1017.8 - 0.2
16/05:19am 16.9 18.6 15.2 90 1.0 CALM 0 0 0 0 1017.8 - 0.2
16/05:00am 17.6 19.6 15.9 90 1.0 CALM 0 0 0 0 1017.8 - 0.2
16/04:58am 17.7 19.7 16.0 90 1.0 CALM 0 0 0 0 1017.8 - 0.2
16/04:30am 18.7 20.0 17.0 90 1.0 NE 6 7 3 4 1017.6 - 0.2
16/04:00am 19.3 19.5 17.6 90 1.0 NE 13 15 7 8 1017.4 - 0.2
16/03:30am 19.5 19.8 18.0 91 0.9 ENE 13 17 7 9 1017.7 - 0.2
16/03:19am 19.7 20.1 18.2 91 0.9 ENE 13 15 7 8 1017.8 - 0.2
16/03:00am 19.8 20.3 18.3 91 0.9 ENE 13 17 7 9 1017.8 1017.8 0.2
16/02:30am 19.3 20.7 17.8 91 0.9 NNE 7 9 4 5 1018.0 - 0.2
16/02:00am 19.7 20.6 18.4 92 0.8 ENE 11 15 6 8 1018.2 - 0.2
16/01:58am 19.7 20.6 18.4 92 0.8 ENE 11 15 6 8 1018.2 - 0.2
16/01:43am 19.6 20.4 18.1 91 0.9 ENE 11 13 6 7 1018.5 - 0.2
16/01:30am 19.6 20.0 18.1 91 0.9 ENE 13 15 7 8 1018.6 - 0.2
16/01:00am 19.7 19.7 18.2 91 0.9 ENE 15 17 8 9 1018.8 - 0.2
16/12:52am 19.7 19.7 18.2 91 0.9 ENE 15 17 8 9 1018.9 - 0.2
16/12:30am 19.6 20.4 18.1 91 0.9 ENE 11 15 6 8 1019.2 - 0.2
16/12:24am 19.6 20.4 18.1 91 0.9 ENE 11 13 6 7 1019.3 - 0.2
16/12:07am 19.6 20.4 18.1 91 0.9 ENE 11 13 6 7 1019.4 - 0.2
16/12:00am 19.6 20.7 18.1 91 0.9 ENE 9 13 5 7 1019.5 1019.5 0.2
 
Date/Time
EDT
Temp
°C
App
Temp
°C
Dew
Point
°C
Rel
Hum
%
Delta-T
°C
Wind Press
QNH
hPa
Press
MSL
hPa
Rain since
9am
mm
Dir  Spd
km/h
Gust
km/h
Spd
kts
Gust
kts
15/11:30pm 19.7 20.5 18.2 91 0.9 E 11 15 6 8 1019.7 - 0.2
15/11:00pm 19.8 19.9 18.3 91 0.9 ENE 15 19 8 10 1019.8 - 0.2
15/10:30pm 19.9 19.6 18.2 90 1.1 ENE 17 20 9 11 1019.9 - 0.2
15/10:00pm 20.0 19.3 18.3 90 1.1 ENE 19 22 10 12 1019.9 - 0.2
15/09:30pm 20.0 19.7 18.3 90 1.1 ENE 17 22 9 12 1019.9 - 0.2
15/09:12pm 20.0 19.2 18.1 89 1.2 ENE 19 20 10 11 1019.8 - 0.2
15/09:00pm 20.1 19.8 18.2 89 1.2 ENE 17 19 9 10 1019.9 1019.9 0.2
15/08:50pm 20.2 20.3 18.3 89 1.2 ENE 15 19 8 10 1020.0 - 0.2
15/08:30pm 20.0 20.4 18.1 89 1.2 ENE 13 17 7 9 1019.9 - 0.2
15/08:00pm 20.1 20.1 18.0 88 1.3 ENE 15 17 8 9 1019.8 - 0.2
15/07:30pm 20.2 20.5 18.0 87 1.4 ENE 13 17 7 9 1019.5 - 0.2
15/07:00pm 20.3 20.6 17.9 86 1.5 ENE 13 17 7 9 1019.4 - 0.2
15/06:30pm 20.8 20.7 17.8 83 1.9 ENE 15 17 8 9 1019.2 - 0.2
15/06:00pm 20.7 21.0 17.9 84 1.7 ENE 13 17 7 9 1019.1 1019.1 0.2
15/05:30pm 21.2 21.3 18.4 84 1.7 ENE 15 19 8 10 1018.9 - 0.2
15/05:00pm 21.5 22.1 18.5 83 1.9 E 13 17 7 9 1018.6 - 0.2

Other Formats:

Comma delimited format used in spreadsheet applications
http://www.bom.gov.au/fwo/IDN60801/IDN60801.94995.axf

JavaScript Object Notation format (JSON) in row-major order
http://www.bom.gov.au/fwo/IDN60801/IDN60801.94995.json